Time;durP1;ratioP1;P1;durP2;ratioP2;P2;SDS_P1;SDS_P2;PMS_P1;PMS_P2;Temp;Humidity;BMP_temperature;BMP_pressure;BME280_temperature;BME280_humidity;BME280_pressure;Samples;Min_cycle;Max_cycle;Signal;HPM_P1;HPM_P2
2022/08/26 00:00:01;;;;;;;35.33;19.67;;;21.10;99.90;20.70;100608;;;;553612;255;23182;-80
2022/08/26 00:02:29;;;;;;;33.00;18.03;;;21.10;99.90;20.80;100602;;;;553370;255;23200;-80
2022/08/26 00:04:57;;;;;;;33.47;19.60;;;21.10;99.90;20.80;100605;;;;553369;255;23160;-80
2022/08/26 00:07:25;;;;;;;30.07;19.40;;;21.10;99.90;20.80;100604;;;;552930;255;24174;-81
2022/08/26 00:09:53;;;;;;;33.83;19.47;;;21.10;99.90;20.80;100599;;;;553485;255;23253;-82
2022/08/26 00:12:21;;;;;;;34.17;18.73;;;21.10;99.90;20.80;100597;;;;553044;255;24131;-80
2022/08/26 00:14:49;;;;;;;29.67;18.80;;;21.10;99.90;20.80;100600;;;;552895;255;23199;-81
2022/08/26 00:17:17;;;;;;;31.23;19.50;;;21.10;99.90;20.80;100607;;;;552906;255;24189;-79
2022/08/26 00:19:45;;;;;;;26.77;18.67;;;21.20;99.90;20.80;100605;;;;552699;255;25258;-79
2022/08/26 00:22:13;;;;;;;30.53;18.60;;;21.10;99.90;20.80;100601;;;;553297;254;24143;-80
2022/08/26 00:24:41;;;;;;;32.13;18.97;;;21.10;99.90;20.80;100602;;;;552888;255;24249;-80
2022/08/26 00:27:08;;;;;;;35.90;18.47;;;21.20;99.90;20.80;100597;;;;552785;255;23254;-80
2022/08/26 00:29:36;;;;;;;31.43;18.43;;;21.20;99.90;20.90;100593;;;;552863;255;24241;-82
2022/08/26 00:32:04;;;;;;;25.80;16.23;;;21.20;99.90;20.90;100597;;;;552699;255;23178;-80
2022/08/26 00:34:36;;;;;;;27.30;18.23;;;21.20;99.90;20.90;100593;;;;552686;255;23168;-81
2022/08/26 00:37:00;;;;;;;30.50;18.67;;;21.20;99.90;20.90;100595;;;;552050;255;24192;-81
2022/08/26 00:39:28;;;;;;;30.87;17.87;;;21.20;99.90;20.90;100590;;;;552476;255;24202;-81
2022/08/26 00:41:56;;;;;;;30.97;18.30;;;21.20;99.90;20.90;100593;;;;552656;255;24188;-81
2022/08/26 00:44:24;;;;;;;43.00;18.57;;;21.20;99.90;20.90;100591;;;;552617;255;25323;-81
2022/08/26 00:46:54;;;;;;;32.37;18.40;;;21.20;99.90;20.90;100582;;;;552726;255;24168;-81
2022/08/26 00:49:31;;;;;;;31.87;16.97;;;21.20;99.90;20.90;100590;;;;552500;255;23203;-81
2022/08/26 00:51:59;;;;;;;27.23;17.37;;;21.20;99.90;20.90;100591;;;;552586;255;24169;-81
2022/08/26 00:54:27;;;;;;;28.20;17.20;;;21.20;99.90;20.90;100587;;;;552466;255;23187;-80
2022/08/26 00:56:55;;;;;;;31.90;18.73;;;21.20;99.90;20.90;100592;;;;552848;255;24140;-81
2022/08/26 00:59:23;;;;;;;30.27;18.57;;;21.20;99.90;20.90;100590;;;;552546;255;23161;-81
2022/08/26 01:01:51;;;;;;;30.40;18.00;;;21.20;99.90;20.90;100594;;;;552498;255;23200;-82
2022/08/26 01:04:19;;;;;;;32.07;18.03;;;21.20;99.90;20.90;100588;;;;552629;254;23160;-81
2022/08/26 01:06:46;;;;;;;40.27;17.83;;;21.20;99.90;20.90;100587;;;;552409;255;23213;-81
2022/08/26 01:09:14;;;;;;;32.90;18.67;;;21.20;99.90;20.90;100587;;;;553966;254;24174;-82
2022/08/26 01:11:43;;;;;;;33.67;19.23;;;21.20;99.90;20.90;100587;;;;562031;252;23156;-81
2022/08/26 01:14:12;;;;;;;30.40;17.93;;;21.20;99.90;20.90;100589;;;;553700;255;23195;-81
2022/08/26 01:16:38;;;;;;;34.30;18.83;;;21.20;99.90;20.90;100587;;;;553568;255;23157;-80
2022/08/26 01:19:15;;;;;;;29.73;17.97;;;21.20;99.90;20.90;100591;;;;563505;251;24174;-80
2022/08/26 01:22:07;;;;;;;34.57;18.63;;;21.20;99.90;20.90;100586;;;;553187;255;24139;-80
2022/08/26 01:24:35;;;;;;;31.27;18.60;;;21.20;99.90;20.90;100573;;;;553429;255;24152;-80
2022/08/26 01:27:03;;;;;;;34.13;17.67;;;21.20;99.90;20.90;100580;;;;553208;255;24145;-79
2022/08/26 01:29:31;;;;;;;31.67;17.73;;;21.20;99.90;20.90;100578;;;;553021;255;23214;-80
2022/08/26 01:31:59;;;;;;;33.70;18.30;;;21.20;99.90;20.90;100576;;;;552938;255;24182;-79
2022/08/26 01:34:29;;;;;;;27.40;17.47;;;21.20;99.90;20.90;100574;;;;552809;255;23270;-80
2022/08/26 01:37:15;;;;;;;29.97;18.07;;;21.20;99.90;20.90;100574;;;;552781;255;24136;-80
2022/08/26 01:39:43;;;;;;;31.97;17.77;;;21.20;99.90;20.90;100575;;;;552688;255;23231;-79
2022/08/26 01:42:12;;;;;;;35.50;17.50;;;21.20;99.90;20.90;100574;;;;552873;255;24141;-80
2022/08/26 01:44:45;;;;;;;32.47;17.63;;;21.20;99.90;20.90;100569;;;;552505;255;24141;-80
2022/08/26 01:47:13;;;;;;;32.73;18.80;;;21.20;99.90;20.90;100578;;;;552561;255;24148;-81
2022/08/26 01:49:41;;;;;;;35.40;19.00;;;21.20;99.90;20.90;100573;;;;552228;255;24195;-81
2022/08/26 01:52:09;;;;;;;30.57;17.13;;;21.20;99.90;20.90;100572;;;;552644;255;24158;-81
2022/08/26 01:54:37;;;;;;;30.73;18.70;;;21.20;99.90;20.90;100571;;;;552483;255;23205;-79
2022/08/26 01:57:08;;;;;;;31.87;17.47;;;21.20;99.90;20.90;100572;;;;552487;255;24208;-79
2022/08/26 01:59:33;;;;;;;36.27;17.37;;;21.20;99.90;20.90;100579;;;;552068;255;23180;-79
2022/08/26 02:02:01;;;;;;;34.43;18.40;;;21.20;99.90;20.90;100580;;;;552530;255;23172;-80
2022/08/26 02:04:37;;;;;;;28.77;17.97;;;21.20;99.90;20.90;100576;;;;552694;255;24146;-80
2022/08/26 02:07:05;;;;;;;34.97;18.30;;;21.20;99.90;20.90;100567;;;;560340;253;23197;-81
2022/08/26 02:09:33;;;;;;;33.33;17.80;;;21.20;99.90;20.90;100571;;;;552546;255;24166;-81
2022/08/26 02:12:01;;;;;;;36.37;17.70;;;21.20;99.90;20.90;100564;;;;552384;255;24224;-81
2022/08/26 02:14:30;;;;;;;30.10;18.87;;;21.20;99.90;20.90;100561;;;;552971;254;24141;-81
2022/08/26 02:16:57;;;;;;;28.80;18.47;;;21.20;99.90;20.90;100553;;;;552812;255;24165;-80
2022/08/26 02:19:31;;;;;;;29.43;18.80;;;21.20;99.90;20.90;100561;;;;553650;254;23202;-79
2022/08/26 02:22:00;;;;;;;34.70;19.67;;;21.20;99.90;20.90;100550;;;;554085;255;25245;-79
2022/08/26 02:24:28;;;;;;;33.80;17.97;;;21.20;99.90;20.90;100553;;;;553753;255;23157;-79
2022/08/26 02:26:57;;;;;;;28.67;17.27;;;21.20;99.90;20.90;100555;;;;553694;255;26312;-78
2022/08/26 02:29:32;;;;;;;38.20;20.27;;;21.30;99.90;20.90;100558;;;;553533;255;26372;-80
2022/08/26 02:32:00;;;;;;;29.53;18.83;;;21.20;99.90;20.90;100553;;;;553019;255;23235;-79
2022/08/26 02:34:28;;;;;;;28.33;17.63;;;21.30;99.90;20.90;100555;;;;553197;255;23254;-80
2022/08/26 02:36:56;;;;;;;35.90;19.80;;;21.20;99.90;21.00;100554;;;;553343;255;23165;-80
2022/08/26 02:39:24;;;;;;;37.83;18.63;;;21.30;99.90;21.00;100549;;;;553007;255;24228;-79
2022/08/26 02:41:53;;;;;;;40.33;18.83;;;21.30;99.90;21.00;100552;;;;552812;255;24189;-79
2022/08/26 02:44:22;;;;;;;37.97;19.53;;;21.30;99.90;21.00;100548;;;;553117;255;24143;-79
2022/08/26 02:46:50;;;;;;;35.60;18.97;;;21.30;99.90;20.90;100542;;;;553323;255;24166;-78
2022/08/26 02:49:18;;;;;;;42.63;19.87;;;21.30;99.90;21.00;100535;;;;553411;255;24174;-81
2022/08/26 02:51:45;;;;;;;45.50;25.20;;;21.30;99.90;21.00;100539;;;;558769;251;35780;-81
2022/08/26 02:54:14;;;;;;;45.17;21.73;;;21.30;99.90;21.00;100538;;;;553638;255;24155;-79
2022/08/26 02:56:41;;;;;;;44.47;21.97;;;21.30;99.90;21.00;100537;;;;553394;255;24143;-78
2022/08/26 02:59:11;;;;;;;38.50;20.13;;;21.30;99.90;21.00;100538;;;;552966;255;24144;-79
2022/08/26 03:01:37;;;;;;;43.17;19.60;;;21.30;99.90;21.00;100539;;;;553581;255;23189;-80
2022/08/26 03:04:08;;;;;;;31.33;19.90;;;21.30;99.90;21.00;100534;;;;563975;255;24126;-80
2022/08/26 03:06:33;;;;;;;40.33;18.93;;;21.30;99.90;21.00;100529;;;;553356;255;23166;-79
2022/08/26 03:09:01;;;;;;;49.97;20.67;;;21.30;99.90;21.00;100538;;;;553823;255;24127;-79
2022/08/26 03:11:30;;;;;;;44.43;21.00;;;21.30;99.90;21.00;100539;;;;553688;255;24151;-80
2022/08/26 03:13:57;;;;;;;35.10;19.10;;;21.30;99.90;21.00;100537;;;;552972;255;24198;-80
2022/08/26 03:16:25;;;;;;;46.40;20.60;;;21.30;99.90;21.00;100540;;;;553208;255;24237;-80
2022/08/26 03:18:53;;;;;;;43.43;20.30;;;21.30;99.90;21.00;100533;;;;552916;255;24147;-80
2022/08/26 03:21:21;;;;;;;43.53;20.80;;;21.30;99.90;21.00;100531;;;;563239;255;24116;-80
2022/08/26 03:23:49;;;;;;;57.93;21.53;;;21.30;99.90;21.00;100528;;;;553119;255;24200;-80
2022/08/26 03:26:17;;;;;;;57.20;22.33;;;21.40;99.90;21.00;100530;;;;553174;255;23236;-80
2022/08/26 03:31:32;;;;;;;45.57;21.47;;;21.40;99.90;21.00;100520;;;;553995;254;23163;-81
2022/08/26 03:34:02;;;;;;;34.93;20.30;;;21.40;99.90;21.00;100516;;;;553779;255;24159;-79
2022/08/26 03:36:29;;;;;;;56.50;22.97;;;21.40;99.90;21.00;100520;;;;553515;255;23226;-80
2022/08/26 03:38:58;;;;;;;53.10;22.40;;;21.40;99.90;21.00;100517;;;;553398;255;25208;-80
2022/08/26 03:41:29;;;;;;;71.93;23.67;;;21.40;99.90;21.10;100519;;;;553193;255;23195;-80
2022/08/26 03:43:55;;;;;;;81.50;22.30;;;21.40;99.90;21.10;100511;;;;552658;255;24190;-80
2022/08/26 03:46:24;;;;;;;75.70;23.60;;;21.40;99.90;21.00;100521;;;;553177;255;23164;-80
2022/08/26 03:48:53;;;;;;;67.73;22.37;;;21.40;99.90;21.00;100514;;;;553070;255;24218;-81
2022/08/26 03:51:21;;;;;;;76.57;25.00;;;21.30;99.90;21.00;100513;;;;552755;255;24192;-78
2022/08/26 03:53:50;;;;;;;64.77;23.80;;;21.40;99.90;21.00;100513;;;;552856;251;23202;-80
2022/08/26 03:56:19;;;;;;;80.33;25.20;;;21.40;99.90;21.10;100515;;;;552818;255;24160;-81
2022/08/26 03:58:47;;;;;;;73.53;23.50;;;21.40;99.90;21.10;100521;;;;552910;255;23160;-81
2022/08/26 04:01:19;;;;;;;70.10;23.77;;;21.40;99.90;21.10;100522;;;;552810;255;23183;-81
2022/08/26 04:03:58;;;;;;;84.23;21.90;;;21.40;99.90;21.10;100512;;;;552874;255;24150;-80
2022/08/26 04:06:32;;;;;;;95.97;24.23;;;21.40;99.90;21.10;100521;;;;552685;255;24136;-80
2022/08/26 04:09:00;;;;;;;95.40;23.73;;;21.40;99.90;21.10;100525;;;;554566;255;24162;-80
2022/08/26 04:11:29;;;;;;;89.23;23.20;;;21.50;99.90;21.10;100530;;;;552376;255;24159;-80
2022/08/26 04:13:58;;;;;;;85.40;23.30;;;21.50;99.90;21.10;100522;;;;552883;255;24159;-81
2022/08/26 04:16:24;;;;;;;102.70;24.80;;;21.50;99.90;21.10;100521;;;;552884;255;23174;-80
2022/08/26 04:18:52;;;;;;;104.47;23.13;;;21.50;99.90;21.20;100515;;;;552493;255;24130;-81
2022/08/26 04:21:20;;;;;;;86.67;25.27;;;21.50;99.90;21.20;100522;;;;552611;255;24242;-80
2022/08/26 04:23:48;;;;;;;63.53;24.63;;;21.50;99.90;21.20;100510;;;;552537;255;24194;-80
2022/08/26 04:26:19;;;;;;;99.67;23.80;;;21.50;99.90;21.30;100516;;;;552668;255;24136;-80
2022/08/26 04:28:44;;;;;;;118.60;24.97;;;21.60;99.90;21.30;100520;;;;560631;255;23181;-80
2022/08/26 04:31:15;;;;;;;87.57;24.73;;;21.60;99.90;21.30;100518;;;;562570;255;24236;-80
2022/08/26 04:33:40;;;;;;;125.70;25.90;;;21.60;99.90;21.30;100516;;;;552506;255;24172;-79
2022/08/26 04:36:11;;;;;;;63.97;24.27;;;21.70;99.90;21.30;100519;;;;552515;255;23158;-80
2022/08/26 04:38:35;;;;;;;81.83;24.40;;;21.70;99.90;21.40;100519;;;;552347;255;24171;-80
2022/08/26 04:41:04;;;;;;;100.53;26.37;;;21.70;99.90;21.40;100524;;;;552553;255;24168;-81
2022/08/26 04:43:32;;;;;;;74.03;24.43;;;21.80;99.90;21.50;100517;;;;564122;253;24135;-80
2022/08/26 04:46:00;;;;;;;93.17;24.93;;;21.80;99.90;21.50;100523;;;;553638;255;24171;-81
2022/08/26 04:48:28;;;;;;;54.60;24.27;;;21.80;99.90;21.60;100525;;;;553236;255;24150;-81
2022/08/26 04:50:56;;;;;;;91.37;25.57;;;21.90;99.90;21.60;100519;;;;552994;255;24274;-80
2022/08/26 04:53:24;;;;;;;51.57;21.67;;;21.90;99.90;21.60;100526;;;;552657;255;24153;-80
2022/08/26 04:55:52;;;;;;;52.33;23.03;;;22.00;99.90;21.70;100530;;;;553130;255;24144;-80
2022/08/26 04:58:20;;;;;;;50.90;23.23;;;22.00;99.90;21.80;100530;;;;552695;255;23185;-81
2022/08/26 05:00:47;;;;;;;39.73;22.67;;;22.10;99.90;21.80;100530;;;;552879;255;24158;-81
2022/08/26 05:03:16;;;;;;;38.17;21.23;;;22.20;99.90;21.90;100530;;;;552844;255;24178;-81
2022/08/26 05:05:43;;;;;;;34.43;20.23;;;22.20;99.90;21.90;100523;;;;552827;255;24190;-81
2022/08/26 05:08:15;;;;;;;33.60;21.00;;;22.30;99.90;21.90;100529;;;;552528;255;24181;-81
2022/08/26 05:10:48;;;;;;;35.30;17.87;;;22.20;99.90;22.00;100528;;;;552673;255;24221;-81
2022/08/26 05:13:16;;;;;;;28.17;16.73;;;22.30;99.90;22.00;100533;;;;553003;255;24336;-80
2022/08/26 05:15:44;;;;;;;43.63;19.03;;;22.40;99.90;22.00;100533;;;;552717;255;24171;-81
2022/08/26 05:18:12;;;;;;;31.80;18.97;;;22.40;99.90;22.00;100534;;;;552906;255;24168;-81
2022/08/26 05:20:40;;;;;;;32.57;17.50;;;22.40;99.90;22.00;100525;;;;552955;255;24152;-82
2022/08/26 05:23:08;;;;;;;30.53;17.33;;;22.40;99.90;22.10;100536;;;;552929;255;24191;-81
2022/08/26 05:25:42;;;;;;;37.40;17.13;;;22.40;99.90;22.10;100540;;;;552962;255;24160;-83
2022/08/26 05:28:07;;;;;;;30.33;16.73;;;22.50;99.90;22.20;100534;;;;553376;255;24171;-81
2022/08/26 05:30:34;;;;;;;34.80;16.60;;;22.60;99.90;22.30;100536;;;;564128;255;24153;-81
2022/08/26 05:33:02;;;;;;;33.80;17.40;;;22.60;99.90;22.30;100537;;;;553702;255;24173;-81
2022/08/26 05:35:32;;;;;;;30.47;19.77;;;22.70;99.90;22.40;100532;;;;553453;255;24153;-84
2022/08/26 05:37:59;;;;;;;42.97;23.47;;;22.80;99.90;22.40;100530;;;;552770;255;24157;-82
2022/08/26 05:40:26;;;;;;;40.97;24.53;;;22.80;99.90;22.50;100528;;;;561364;252;24129;-81
2022/08/26 05:42:54;;;;;;;39.47;24.23;;;22.90;99.90;22.60;100530;;;;552812;255;24137;-81
2022/08/26 05:45:23;;;;;;;36.90;23.00;;;22.90;99.90;22.70;100528;;;;552662;255;24233;-81
2022/08/26 05:47:50;;;;;;;38.43;22.53;;;23.10;99.90;22.90;100537;;;;552626;255;24172;-82
2022/08/26 05:50:20;;;;;;;36.27;21.77;;;23.20;99.90;22.90;100529;;;;552238;255;24239;-81
2022/08/26 05:52:46;;;;;;;32.77;19.80;;;23.30;99.90;22.90;100535;;;;552947;255;23156;-82
2022/08/26 05:55:14;;;;;;;39.13;21.30;;;23.30;99.90;22.90;100537;;;;554100;254;24175;-80
2022/08/26 05:57:43;;;;;;;31.90;21.73;;;23.30;99.90;23.00;100539;;;;553548;255;24188;-79
2022/08/26 06:00:11;;;;;;;41.93;22.67;;;23.30;99.90;23.00;100541;;;;553182;255;24181;-79
2022/08/26 06:02:40;;;;;;;39.33;21.77;;;23.40;99.90;23.10;100535;;;;553217;255;24164;-79
2022/08/26 06:05:08;;;;;;;38.90;21.30;;;23.40;99.90;23.10;100532;;;;552986;255;24184;-80
2022/08/26 06:10:22;;;;;;;31.57;19.47;;;23.50;99.90;23.30;100531;;;;553397;255;24132;-80
2022/08/26 06:12:51;;;;;;;29.47;18.23;;;23.80;99.90;23.50;100540;;;;552918;255;24137;-79
2022/08/26 06:15:20;;;;;;;36.77;17.17;;;23.90;99.90;23.60;100539;;;;553144;255;24188;-80
2022/08/26 06:17:48;;;;;;;34.80;18.70;;;24.10;99.90;23.70;100531;;;;553094;255;24431;-80
2022/08/26 06:20:17;;;;;;;30.30;19.30;;;24.20;99.90;23.90;100532;;;;553176;255;24205;-82
2022/08/26 06:25:37;;;;;;;33.67;19.50;;;24.30;99.90;24.20;100535;;;;560951;255;24156;-81
2022/08/26 06:28:05;;;;;;;37.23;20.17;;;24.50;99.90;24.30;100542;;;;552797;255;24142;-80
2022/08/26 06:30:36;;;;;;;34.03;20.80;;;24.70;99.90;24.40;100532;;;;552468;255;24184;-81
2022/08/26 06:33:01;;;;;;;38.60;20.70;;;24.70;99.90;24.50;100530;;;;552112;255;24216;-80
2022/08/26 06:35:38;;;;;;;31.30;19.37;;;24.80;99.90;24.70;100533;;;;552599;255;24209;-80
2022/08/26 06:38:08;;;;;;;35.03;18.23;;;25.00;99.90;24.90;100533;;;;552610;255;24165;-81
2022/08/26 06:40:36;;;;;;;33.40;15.30;;;25.20;99.90;25.00;100530;;;;552464;255;24192;-81
2022/08/26 06:43:01;;;;;;;29.20;14.67;;;25.40;99.90;25.10;100537;;;;552331;255;23223;-80
2022/08/26 06:45:29;;;;;;;28.80;13.90;;;25.50;99.90;25.10;100533;;;;552599;255;23202;-79
2022/08/26 06:47:58;;;;;;;24.63;13.83;;;25.50;99.90;25.30;100537;;;;552648;255;23214;-81
2022/08/26 06:50:25;;;;;;;42.83;15.77;;;25.60;99.90;25.40;100538;;;;552668;255;23189;-80
2022/08/26 06:52:53;;;;;;;34.43;12.50;;;25.80;99.90;25.60;100540;;;;552554;255;23154;-78
2022/08/26 06:55:24;;;;;;;36.28;15.00;;;26.10;99.90;25.80;100541;;;;548020;255;35671;-79
2022/08/26 06:57:52;;;;;;;28.97;15.63;;;26.10;99.90;25.90;100547;;;;552733;255;23202;-80
2022/08/26 07:00:20;;;;;;;23.40;14.20;;;26.30;99.90;26.00;100534;;;;552924;255;24218;-80
2022/08/26 07:02:48;;;;;;;27.40;13.23;;;26.30;99.90;26.10;100541;;;;552625;255;23185;-81
2022/08/26 07:05:16;;;;;;;42.77;14.60;;;26.40;99.90;26.30;100534;;;;552955;254;24149;-79
2022/08/26 07:07:44;;;;;;;26.13;16.63;;;26.60;99.90;26.70;100535;;;;553842;255;23141;-81
2022/08/26 07:10:12;;;;;;;25.60;17.00;;;26.90;99.90;27.50;100536;;;;553433;255;23148;-80
2022/08/26 07:12:41;;;;;;;33.50;16.10;;;28.50;99.90;28.40;100535;;;;553358;255;23141;-80
2022/08/26 07:15:13;;;;;;;31.63;14.87;;;29.60;99.90;29.60;100534;;;;553434;255;23184;-80
2022/08/26 07:17:38;;;;;;;34.78;16.05;;;31.00;99.90;31.10;100530;;;;553071;255;23150;-80
2022/08/26 07:20:10;;;;;;;33.05;14.52;;;32.70;99.90;32.90;100528;;;;553446;255;23149;-81
2022/08/26 07:22:35;;;;;;;21.62;14.25;;;32.60;99.90;33.60;100535;;;;553065;255;23170;-82
2022/08/26 07:25:07;;;;;;;31.42;14.38;;;34.80;99.90;34.80;100526;;;;561101;255;24182;-80
2022/08/26 07:27:32;;;;;;;25.65;14.10;;;36.10;99.90;36.00;100529;;;;552614;255;23167;-83
2022/08/26 07:30:00;;;;;;;32.00;13.62;;;36.00;99.90;36.90;100526;;;;562949;255;23201;-81
2022/08/26 07:32:28;;;;;;;27.15;13.88;;;37.00;99.90;37.50;100528;;;;552833;255;23205;-81
2022/08/26 07:34:56;;;;;;;33.45;14.55;;;37.70;99.90;37.70;100528;;;;552797;255;23198;-82
2022/08/26 07:37:24;;;;;;;28.45;13.18;;;38.00;98.20;37.70;100521;;;;553001;255;23196;-82
2022/08/26 07:39:52;;;;;;;27.42;12.37;;;38.10;96.30;37.80;100522;;;;552741;255;23254;-82
2022/08/26 07:42:20;;;;;;;29.00;12.05;;;38.30;94.50;37.80;100525;;;;552502;255;23224;-80
2022/08/26 07:44:48;;;;;;;27.52;11.82;;;38.40;93.60;37.60;100528;;;;552554;255;23172;-81
2022/08/26 07:47:19;;;;;;;26.42;11.73;;;38.30;92.40;37.40;100533;;;;552455;255;24247;-80
2022/08/26 07:49:43;;;;;;;25.12;13.57;;;38.10;92.40;37.20;100539;;;;552413;255;23173;-81
2022/08/26 07:52:12;;;;;;;30.20;13.07;;;37.50;92.10;36.80;100545;;;;552443;255;27380;-81
2022/08/26 07:54:44;;;;;;;26.45;12.45;;;37.10;91.90;36.30;100543;;;;552701;255;23148;-80
2022/08/26 07:57:09;;;;;;;26.60;14.07;;;36.70;92.80;35.90;100542;;;;552243;255;23150;-81
2022/08/26 07:59:38;;;;;;;39.63;13.93;;;36.20;93.60;35.60;100546;;;;552578;255;24168;-82
2022/08/26 08:02:06;;;;;;;21.15;12.05;;;36.20;93.60;35.30;100547;;;;552593;255;23313;-81
2022/08/26 08:04:34;;;;;;;23.08;12.00;;;35.90;93.90;35.10;100553;;;;552497;252;23187;-80
2022/08/26 08:07:02;;;;;;;47.40;12.90;;;35.60;94.40;35.00;100552;;;;552599;255;23144;-81
2022/08/26 08:09:33;;;;;;;37.75;12.85;;;35.50;94.60;34.80;100552;;;;552557;255;23219;-79
2022/08/26 08:11:58;;;;;;;22.92;12.00;;;35.30;94.80;34.70;100551;;;;552397;255;23187;-81
2022/08/26 08:14:26;;;;;;;31.50;11.70;;;35.20;95.20;34.70;100554;;;;552545;255;23264;-81
2022/08/26 08:16:54;;;;;;;23.50;11.05;;;35.10;95.40;34.60;100556;;;;553301;254;23234;-80
2022/08/26 08:19:25;;;;;;;23.33;9.38;;;34.80;95.80;34.20;100559;;;;554097;255;23241;-79
2022/08/26 08:21:50;;;;;;;26.58;9.43;;;34.70;95.40;33.80;100556;;;;553102;255;23181;-80
2022/08/26 08:24:18;;;;;;;22.10;9.02;;;34.40;96.30;33.40;100551;;;;553658;255;23145;-80
2022/08/26 08:26:46;;;;;;;21.35;9.15;;;34.00;97.00;33.00;100549;;;;553160;255;24215;-81
2022/08/26 08:29:14;;;;;;;29.83;10.32;;;33.70;98.00;32.70;100549;;;;548386;255;35745;-81
2022/08/26 08:31:42;;;;;;;25.17;10.02;;;33.30;98.80;32.30;100552;;;;553088;255;24191;-80
2022/08/26 08:34:10;;;;;;;26.90;11.07;;;32.90;99.70;32.10;100553;;;;552986;255;23189;-82
2022/08/26 08:36:38;;;;;;;30.05;10.50;;;32.70;99.90;32.10;100553;;;;552882;255;23140;-80
2022/08/26 08:39:06;;;;;;;29.12;10.27;;;32.60;99.90;32.20;100557;;;;547813;255;35730;-81
2022/08/26 08:42:05;;;;;;;23.12;9.35;;;32.60;99.90;32.00;100552;;;;552938;255;23183;-82
2022/08/26 08:44:29;;;;;;;30.73;8.93;;;32.30;99.90;31.80;100554;;;;553087;255;23153;-80
2022/08/26 08:46:58;;;;;;;27.42;9.77;;;32.10;99.90;31.70;100546;;;;548134;255;35650;-81
2022/08/26 08:49:30;;;;;;;24.45;8.98;;;32.10;99.90;31.60;100544;;;;552533;255;23200;-81
2022/08/26 08:51:54;;;;;;;23.90;8.50;;;32.00;99.90;31.50;100542;;;;560870;252;23207;-80
2022/08/26 08:54:25;;;;;;;25.02;9.20;;;32.00;99.90;31.30;100543;;;;552201;255;23166;-78
2022/08/26 08:56:51;;;;;;;22.87;10.15;;;31.90;99.90;31.30;100549;;;;552580;254;23166;-80
2022/08/26 08:59:23;;;;;;;20.30;8.82;;;32.10;99.90;31.80;100546;;;;551769;255;24199;-80
2022/08/26 09:02:05;;;;;;;18.40;8.70;;;32.00;99.90;33.00;100539;;;;552873;255;23148;-80
2022/08/26 09:05:07;;;;;;;18.08;7.37;;;33.20;99.90;34.00;100533;;;;547433;255;23197;-79
2022/08/26 09:07:40;;;;;;;17.92;7.68;;;34.20;99.90;35.40;100541;;;;552583;255;23157;-81
2022/08/26 09:10:36;;;;;;;21.10;7.40;;;35.60;98.00;35.60;100539;;;;552573;255;23159;-80
2022/08/26 09:13:10;;;;;;;19.55;7.60;;;36.10;94.80;36.80;100541;;;;552926;255;24170;-80
2022/08/26 09:15:52;;;;;;;21.15;10.13;;;37.10;92.50;37.20;100537;;;;552854;255;23200;-80
2022/08/26 09:18:26;;;;;;;21.20;7.80;;;37.70;91.10;38.70;100539;;;;562711;255;23176;-79
2022/08/26 09:21:05;;;;;;;19.60;7.35;;;38.90;89.60;40.80;100536;;;;552751;251;23167;-79
2022/08/26 09:23:33;;;;;;;13.13;6.22;;;40.90;81.20;42.70;100539;;;;552900;255;23284;-80
2022/08/26 09:26:01;;;;;;;19.42;9.60;;;43.10;70.40;43.20;100532;;;;552970;255;23147;-82
2022/08/26 09:28:29;;;;;;;20.62;7.65;;;44.00;64.40;43.50;100532;;;;552591;254;24265;-83
2022/08/26 09:31:09;;;;;;;13.80;7.50;;;44.60;62.10;44.50;100525;;;;553870;255;23168;-82
2022/08/26 09:33:37;;;;;;;22.08;9.02;;;45.50;59.20;45.80;100528;;;;553831;255;23199;-82
2022/08/26 09:36:15;;;;;;;15.32;6.18;;;47.60;52.00;46.50;100533;;;;553663;255;24164;-80
2022/08/26 09:38:43;;;;;;;13.18;6.20;;;47.50;51.90;46.50;100530;;;;555275;254;23161;-80
2022/08/26 09:41:23;;;;;;;19.15;5.78;;;48.10;49.60;47.60;100524;;;;553461;255;23174;-81
2022/08/26 09:44:14;;;;;;;10.38;5.62;;;49.60;46.00;48.30;100531;;;;553414;250;24211;-83
2022/08/26 09:46:38;;;;;;;19.05;6.03;;;49.50;46.50;47.80;100531;;;;552811;255;23180;-82
2022/08/26 09:49:24;;;;;;;10.38;5.93;;;49.50;45.70;48.10;100525;;;;552935;255;23169;-80
2022/08/26 09:52:03;;;;;;;17.45;5.47;;;49.60;45.70;48.40;100535;;;;561213;252;24239;-83
2022/08/26 09:54:31;;;;;;;13.60;5.55;;;49.90;43.60;46.60;100536;;;;552506;255;24246;-83
2022/08/26 09:57:20;;;;;;;13.35;5.68;;;48.90;43.30;44.80;100532;;;;553228;255;23148;-81
2022/08/26 09:59:49;;;;;;;14.23;6.10;;;45.10;48.00;42.90;100535;;;;552789;255;23216;-82
2022/08/26 10:02:33;;;;;;;16.73;6.22;;;43.50;49.70;41.60;100534;;;;553269;255;23167;-81
2022/08/26 10:05:01;;;;;;;16.50;6.03;;;42.00;51.90;40.40;100532;;;;553057;255;23164;-81
2022/08/26 10:07:42;;;;;;;11.98;5.90;;;40.90;54.50;39.50;100527;;;;552851;255;23258;-83
2022/08/26 10:10:10;;;;;;;15.00;6.32;;;40.80;54.40;38.90;100535;;;;553073;255;23261;-80
2022/08/26 10:12:38;;;;;;;13.93;6.22;;;40.00;56.50;38.60;100538;;;;552686;255;23230;-81
2022/08/26 10:15:06;;;;;;;12.40;6.47;;;39.50;58.40;38.40;100534;;;;552854;255;23174;-80
2022/08/26 10:17:43;;;;;;;16.37;5.68;;;39.10;58.50;37.80;100533;;;;552212;255;23165;-81
2022/08/26 10:20:13;;;;;;;14.45;5.40;;;38.50;59.30;37.70;100533;;;;552661;255;23161;-82
2022/08/26 10:22:50;;;;;;;14.60;5.93;;;38.30;59.90;37.30;100531;;;;552795;255;24199;-81
2022/08/26 10:25:18;;;;;;;21.12;6.20;;;38.00;58.70;36.80;100530;;;;560921;255;23178;-80
2022/08/26 10:27:54;;;;;;;16.12;6.50;;;37.60;60.00;36.40;100523;;;;547838;255;35714;-81
2022/08/26 10:30:22;;;;;;;20.10;6.05;;;37.20;60.90;35.80;100526;;;;560816;255;24193;-80
2022/08/26 10:33:08;;;;;;;13.07;5.20;;;36.60;63.00;35.50;100521;;;;552754;255;24195;-82
2022/08/26 10:35:36;;;;;;;17.75;6.05;;;35.70;63.80;35.10;100522;;;;551708;255;24206;-82
2022/08/26 10:38:08;;;;;;;17.58;6.15;;;35.10;65.50;34.40;100510;;;;552711;255;23156;-80
2022/08/26 10:40:45;;;;;;;16.23;5.57;;;35.00;65.50;34.10;100513;;;;553433;254;23163;-81
2022/08/26 10:43:28;;;;;;;15.10;5.18;;;34.40;68.00;33.90;100504;;;;553637;255;23160;-82
2022/08/26 10:46:00;;;;;;;15.05;5.78;;;34.20;69.60;33.90;100506;;;;553508;254;23157;-80
2022/08/26 10:48:33;;;;;;;15.25;5.47;;;34.20;69.60;34.00;100502;;;;553065;255;23152;-82
2022/08/26 10:51:04;;;;;;;13.18;4.80;;;34.30;69.00;33.90;100499;;;;552958;255;23170;-81
2022/08/26 10:53:38;;;;;;;15.32;5.93;;;34.20;67.90;33.60;100500;;;;553119;254;23225;-83
2022/08/26 10:56:09;;;;;;;14.57;5.32;;;34.00;68.70;33.50;100489;;;;552877;255;23206;-82
2022/08/26 10:59:03;;;;;;;18.42;5.75;;;33.80;70.30;33.30;100503;;;;552837;255;23179;-80
2022/08/26 11:01:51;;;;;;;11.48;5.60;;;33.60;71.30;32.80;100504;;;;553209;255;24194;-80
2022/08/26 11:04:32;;;;;;;16.40;5.40;;;33.20;69.60;32.30;100502;;;;548547;255;23157;-81
2022/08/26 11:07:38;;;;;;;11.73;5.05;;;32.80;69.90;32.00;100510;;;;553388;255;23151;-79
2022/08/26 11:10:20;;;;;;;12.55;4.75;;;32.50;67.90;31.50;100502;;;;553514;255;24204;-80
2022/08/26 11:12:53;;;;;;;14.25;5.47;;;32.00;69.60;31.30;100498;;;;553719;255;23237;-79
2022/08/26 11:15:21;;;;;;;8.57;5.32;;;31.80;70.50;31.30;100501;;;;553695;255;23157;-80